La Ronge Airport
CYVC : rendu visible

Aérodrome :











RETROUVEZ-NOUS SUR...

 
LOGIN :

S'inscrire | Disclaimer

   EN    FR    IT 

 









Légende :    VFR   VFR Marginal   IFR   IFR Intensif   IFR Très Intensif
Visi : 
Plafond : 
>= 8 km
>= 3000ft
5 à 8 km
1000 à 3000 ft
1500m à 5 km
500 à 1000 ft
800 à 1500m
200 à 500 ft
< 800m
< 200 ft
Symboles :   Orages  Brouillard  Fortes neiges  Fortes précipitations  Vent > 20 kt






- Altitude de l'aérodrome : 1242 ft
- Code IATA : YVC


CYVC - La Ronge

DERNIER METAR :
  • 290900Z 06008KT 10SM -SN OVC068 M16/M21 A3012 RMK AC8 SLP235

METARs EXPIRÉS :
  • 290842Z 06011KT 10SM -SN OVC070 M16/M21 A3013 RMK AC8 SLP237
  • 290800Z 05011G17KT 15SM OVC070 M15/M21 A3013 RMK AC8 SLP237
  • 290700Z 05016KT 15SM OVC058 M15/M21 A3011 RMK SC8 SLP229

TAF TAF CYVC
Valide du 29 à 07h jusqu'au 29 à 19h UTC


290638Z 2907/2919 04012KT P6SM BKN080
FM291000 06012KT P6SM OVC060
TEMPO 2910/2913 4SM -SN BKN020 OVC040
FM291300 07014KT 11/2SM -SN OVC012
TEMPO 2913/2919 4SM -SN SCT012 OVC025 RMK NXT FCST BY 291300Z



MET'MAP, la Météo Aéronautique d'un coup d'oeil ! - Copyright ORBIFLY Décembre 2007 - Disclaimer

ORBIFLY MET'MAP TEAM :

Programmation & Développement : Alexandra Zaïnal
Sur une idée originale de : Baudouin d'Aumeries
Assistance à la programmation : Marc-Olivier Méhu
Soutien technique & logistique : Manuel Goepfert

Contact : metmap@orbifly.com




SOURCES & CREDITS :

   NOAA       Earth
Advisory